Terminal Aerodrome Forecast
Issued by NWS

Home | Current Version | Previous Version | Text Only | Print | Product List | Glossary On
Versions: 1 2 3 4 5 6 7 8 9 10 11 12 13 14 15 16 17 18 19 20 21 22 23 24 25 26 27
000
FTUS41 KOKX 242300
TAFGON
TAF
KGON 242328Z 2500/2524 19015G21KT 1/4SM -RA FG VV001 WS020/21060KT
     FM251000 20015G21KT 1/2SM +RA FG BKN003 WS020/22060KT
     FM251300 26014G24KT P6SM SCT020 BKN080
     FM251500 28016G30KT P6SM SCT080 BKN250
     FM252100 28014G24KT P6SM SKC=

USA.gov is the U.S. government's official web portal to all federal, state and local government web resources and services.